• Join FlightAware (Why Join?)
  • Login
  • US Flag 
05:19AM EST


 

Airport Tracker/Info


-or-


 

Live Flight TrackerFlight Track Log ✈ UPS782 ✈ 17-May-2013 ✈ KSAT - KLRD

Flight Track Log - Related Links

Times and Time Zones

All times are in EDT time to prevent confusion due to time zone crossing. See the UPS782 flight status page for this flight to view local times or setup timezone preferences in your user account.

Time Position Orientation Groundspeed Altitude Reporting Facility
EDT Latitude Longitude Course Direction KTS MPH feet Rate Location/Type
07:35AM 29.5114 -98.4825 222° Southwest 157 181 2,500  Level FlightAware ADS-B
07:36AM 29.5035 -98.4910 223° Southwest 183 211 2,600 1,140 Climbing FlightAware ADS-B
07:36AM 29.4916 -98.5031 222° Southwest 198 228 3,100 2,100 Climbing FlightAware ADS-B
07:36AM 29.4893 -98.5053 220° Southwest 205 236 3,300 3,660 Climbing FlightAware ADS-B
07:36AM 29.4771 -98.5129 208° Southwest 201 231 4,200 3,240 Climbing FlightAware ADS-B
07:36AM 29.4632 -98.5181 198° South 208 239 5,000 2,160 Climbing FlightAware ADS-B
07:37AM 29.4287 -98.5318 199° South 216 249 6,000 1,980 Climbing FlightAware ADS-B
07:37AM 29.4065 -98.5413 200° South 253 291 6,800 2,580 Climbing FlightAware ADS-B
07:38AM 29.3607 -98.5598 199° South 284 327 8,500 2,280 Climbing FlightAware ADS-B
07:39AM 29.2680 -98.5940 198° South 334 384 11,000 2,040 Climbing FlightAware
07:40AM 29.2060 -98.6170 198° South 368 423 12,300 2,400 Climbing FlightAware
07:41AM 29.1320 -98.6450 198° South 381 438 14,400 2,580 Climbing FlightAware
07:41AM 29.0620 -98.6740 200° South 383 441 16,000 1,260 Climbing FlightAware
07:42AM 28.9970 -98.7070 204° Southwest 382 440 16,100 60 Climbing FlightAware
07:43AM 28.9260 -98.7450 205° Southwest 380 437 16,100  Level FlightAware
07:43AM 28.8630 -98.7780 205° Southwest 378 435 16,100  Level FlightAware
07:44AM 28.8000 -98.8110 205° Southwest 379 436 16,100  Level FlightAware
07:45AM 28.7360 -98.8440 204° Southwest 380 437 16,100  Level FlightAware
07:45AM 28.6810 -98.8720 204° Southwest 380 437 16,100  Level FlightAware
07:46AM 28.6400 -98.8920 203° Southwest 380 437 16,100  Level FlightAware
07:47AM 28.5720 -98.9270 204° Southwest 380 437 16,100  Level FlightAware
07:47AM 28.5170 -98.9550 204° Southwest 380 437 16,100 -120 Level FlightAware
07:48AM 28.4478 -99.0078 204° Southwest 375 432 16,000 -240 Descending Houston Center
07:49AM 28.3578 -99.0669 210° Southwest 375 432 15,800 -1,140 Descending Houston Center
07:50AM 28.2756 -99.1208 210° Southwest 348 400 13,800 -2,040 Descending Houston Center
07:51AM 28.1908 -99.1750 209° Southwest 349 402 11,700 -1,800 Descending Houston Center
07:52AM 28.1092 -99.2281 210° Southwest 342 394 10,200 -1,320 Descending Houston Center
07:53AM 28.0369 -99.2769 211° Southwest 308 354 9,100 -1,320 Descending Houston Center
07:54AM 27.9667 -99.3203 209° Southwest 294 338 7,600 -1,500 Descending Houston Center
07:55AM 27.8972 -99.3664 210° Southwest 291 335 6,100 -1,560 Descending Houston Center
07:56AM 27.8167 -99.4189 210° Southwest 282 325 4,500 -1,260 Descending Houston Center
07:57AM 27.7539 -99.4517 205° Southwest 261 300 3,600 -840 Descending Houston Center
07:58AM 27.6992 -99.4539 182° South 206 237 2,900 -660 Descending Houston Center
07:59AM 27.6547 -99.4575 184° South 171 197 2,300 -600 Descending Houston Center
08:00AM 27.6203 -99.4592 182° South 136 157 1,700 -540 Descending Houston Center
08:01AM 27.5939 -99.4608 183° South 104 120 1,200 -540 Descending Houston Center